Time;durP1;ratioP1;P1;durP2;ratioP2;P2;SDS_P1;SDS_P2;PMS_P1;PMS_P2;Temp;Humidity;BMP_temperature;BMP_pressure;BME280_temperature;BME280_humidity;BME280_pressure;Samples;Min_cycle;Max_cycle;Signal;HPM_P1;HPM_P2
2021/12/13 00:00:30;;;;;;;119.30;31.10;;;10.40;99.90;;;;;;4954521;28;20063;-89
2021/12/13 00:03:29;;;;;;;173.95;35.00;;;10.40;99.90;;;;;;4971712;28;20146;-90
2021/12/13 00:06:15;;;;;;;142.13;33.45;;;10.60;99.90;;;;;;4955902;28;20066;-91
2021/12/13 00:09:03;;;;;;;;;;;;;;;;;;;;;
2021/12/13 00:11:54;;;;;;;158.45;33.83;;;10.40;99.90;;;;;;4994006;28;20057;-91
2021/12/13 00:18:05;;;;;;;159.30;34.95;;;10.40;99.90;;;;;;5010281;28;20056;-89
2021/12/13 00:21:07;;;;;;;116.60;33.35;;;10.40;99.90;;;;;;4977673;28;20050;-92
2021/12/13 00:24:00;;;;;;;;;;;;;;;;;;;;;
2021/12/13 00:30:42;;;;;;;134.43;33.22;;;10.40;99.90;;;;;;4993636;28;20041;-90
2021/12/13 00:33:47;;;;;;;147.68;34.58;;;10.40;99.90;;;;;;4977402;28;20054;-90
2021/12/13 00:36:41;;;;;;;145.52;35.25;;;10.40;99.90;;;;;;4938612;29;20059;-92
2021/12/13 00:39:58;;;;;;;135.43;32.05;;;10.40;99.90;;;;;;4957798;28;20062;-89
2021/12/13 00:42:37;;;;;;;130.60;34.20;;;10.40;99.90;;;;;;4941671;28;20046;-89
2021/12/13 00:45:26;;;;;;;136.65;32.88;;;10.40;99.90;;;;;;4940829;28;20042;-89
2021/12/13 00:47:58;;;;;;;148.15;33.60;;;10.40;99.90;;;;;;4956981;28;20063;-88
2021/12/13 00:51:01;;;;;;;153.93;33.70;;;10.40;99.90;;;;;;4956958;28;20101;-89
2021/12/13 00:53:47;;;;;;;98.35;29.95;;;10.40;99.90;;;;;;4962401;28;20082;-89
2021/12/13 00:56:56;;;;;;;176.15;34.20;;;10.40;99.90;;;;;;4976310;28;20137;-88
2021/12/13 00:59:50;;;;;;;157.10;32.60;;;10.40;99.90;;;;;;4960158;28;20042;-89
2021/12/13 01:02:39;;;;;;;107.35;30.42;;;10.40;99.90;;;;;;5035865;28;20056;-88
2021/12/13 01:05:48;;;;;;;108.88;30.98;;;10.40;99.90;;;;;;5012295;28;20392;-87
2021/12/13 01:08:44;;;;;;;112.97;29.40;;;10.40;99.90;;;;;;5028441;28;20089;-88
2021/12/13 01:11:50;;;;;;;96.82;27.85;;;10.40;99.90;;;;;;4979477;28;20104;-89
2021/12/13 01:15:03;;;;;;;103.88;28.27;;;10.40;99.90;;;;;;4957726;28;20437;-89
2021/12/13 01:18:16;;;;;;;84.50;27.25;;;10.40;99.90;;;;;;4956683;28;20456;-88
2021/12/13 01:24:03;;;;;;;77.18;25.48;;;10.40;99.90;;;;;;4934256;29;20596;-88
2021/12/13 01:27:16;;;;;;;131.18;29.65;;;10.40;99.90;;;;;;4934714;29;20063;-88
2021/12/13 01:29:56;;;;;;;80.55;24.42;;;10.50;99.90;;;;;;4912145;29;20201;-89
2021/12/13 01:32:40;;;;;;;124.38;29.83;;;10.40;99.90;;;;;;4896610;29;20053;-89
2021/12/13 01:35:22;;;;;;;101.38;27.58;;;10.50;99.90;;;;;;4899176;29;20135;-89
2021/12/13 01:38:32;;;;;;;97.85;28.73;;;10.40;99.90;;;;;;4918266;29;20059;-89
2021/12/13 01:41:30;;;;;;;86.88;26.50;;;10.40;99.90;;;;;;4902097;29;20059;-89
2021/12/13 01:44:17;;;;;;;76.55;24.63;;;10.40;99.90;;;;;;4932730;29;20056;-89
2021/12/13 01:47:02;;;;;;;105.32;28.00;;;10.50;99.90;;;;;;4956504;28;20059;-90
2021/12/13 01:49:40;;;;;;;91.22;26.02;;;10.40;99.90;;;;;;4934527;29;20506;-90
2021/12/13 01:52:26;;;;;;;103.43;27.10;;;10.40;99.90;;;;;;4946443;28;20062;-92
2021/12/13 01:55:14;;;;;;;128.50;28.88;;;10.40;99.90;;;;;;4940291;28;20480;-90
2021/12/13 01:57:50;;;;;;;92.80;26.27;;;10.40;99.90;;;;;;4940964;28;20496;-90
2021/12/13 02:04:08;;;;;;;78.13;25.33;;;10.40;99.90;;;;;;4955799;28;20057;-89
2021/12/13 02:06:44;;;;;;;81.80;26.13;;;10.30;99.90;;;;;;4966139;28;20135;-88
2021/12/13 02:09:49;;;;;;;73.60;26.75;;;10.30;99.90;;;;;;4991607;28;20054;-91
2021/12/13 02:12:19;;;;;;;101.22;27.90;;;10.30;99.90;;;;;;4992078;28;20058;-89
2021/12/13 02:17:57;;;;;;;80.93;27.63;;;10.30;99.90;;;;;;5008533;28;20102;-90
2021/12/13 02:20:38;;;;;;;85.35;26.95;;;10.30;99.90;;;;;;4995198;28;20094;-90
2021/12/13 02:23:16;;;;;;;90.28;29.20;;;10.30;99.90;;;;;;4996151;28;20108;-91
2021/12/13 02:25:49;;;;;;;110.18;30.30;;;10.30;99.90;;;;;;5015528;28;20208;-91
2021/12/13 02:28:39;;;;;;;116.95;30.48;;;10.30;99.90;;;;;;5001771;28;20050;-90
2021/12/13 02:31:29;;;;;;;84.60;29.05;;;10.30;99.90;;;;;;4999398;28;20411;-91
2021/12/13 02:34:09;;;;;;;83.28;29.65;;;10.20;99.90;;;;;;4999541;28;20518;-91
2021/12/13 02:36:50;;;;;;;99.15;29.05;;;10.20;99.90;;;;;;4999126;28;20060;-90
2021/12/13 02:43:17;;;;;;;59.60;27.00;;;10.20;99.90;;;;;;4995650;28;20045;-92
2021/12/13 02:45:52;;;;;;;65.80;27.38;;;10.10;99.90;;;;;;4983590;28;20546;-91
2021/12/13 02:48:52;;;;;;;64.00;25.77;;;10.10;99.90;;;;;;5019708;28;20065;-90
2021/12/13 02:51:52;;;;;;;71.60;27.10;;;10.00;99.90;;;;;;5002913;28;20085;-92
2021/12/13 02:58:27;;;;;;;64.05;26.75;;;10.00;99.90;;;;;;5035020;28;20048;-90
2021/12/13 03:04:28;;;;;;;59.25;25.80;;;10.00;99.90;;;;;;5017426;28;20131;-91
2021/12/13 03:07:23;;;;;;;73.53;25.63;;;9.90;99.90;;;;;;5018046;28;20041;-90
2021/12/13 03:17:46;;;;;;;;;;;;;;;;;;;;;
2021/12/13 03:21:08;;;;;;;49.13;20.50;;;9.70;99.90;;;;;;5038772;28;20102;-92
2021/12/13 03:24:22;;;;;;;47.75;18.33;;;10.10;99.90;;;;;;5038563;28;20084;-91
2021/12/13 03:27:33;;;;;;;43.83;17.48;;;9.60;99.90;;;;;;5052901;28;20057;-91
2021/12/13 03:30:16;;;;;;;40.13;16.77;;;9.60;99.90;;;;;;5021890;28;20410;-92
2021/12/13 03:33:12;;;;;;;44.00;17.52;;;9.50;99.90;;;;;;5055654;28;20055;-91
2021/12/13 03:35:56;;;;;;;48.08;16.25;;;9.50;99.90;;;;;;5020766;28;20045;-90
2021/12/13 03:38:43;;;;;;;41.22;16.42;;;9.50;99.90;;;;;;5022007;28;20058;-91
2021/12/13 03:41:23;;;;;;;37.13;15.10;;;9.50;99.90;;;;;;5055198;28;20052;-91
2021/12/13 03:44:15;;;;;;;41.85;15.32;;;9.70;99.90;;;;;;5021677;28;20045;-91
2021/12/13 03:46:54;;;;;;;45.13;14.57;;;9.50;99.90;;;;;;5038422;28;20088;-92
2021/12/13 03:49:33;;;;;;;39.45;13.55;;;9.50;99.90;;;;;;5022162;28;20063;-91
2021/12/13 03:52:16;;;;;;;;;;;;;;;;;;;;;
2021/12/13 03:54:55;;;;;;;31.70;13.70;;;9.40;99.90;;;;;;5021556;28;20107;-91
2021/12/13 03:57:37;;;;;;;39.75;14.80;;;9.40;99.90;;;;;;5017991;28;20085;-91
2021/12/13 04:00:17;;;;;;;37.67;14.32;;;9.40;99.90;;;;;;4978635;28;20058;-91
2021/12/13 04:02:47;;;;;;;38.38;14.70;;;9.40;99.90;;;;;;4977069;28;20120;-91
2021/12/13 04:05:25;;;;;;;37.53;15.73;;;9.40;99.90;;;;;;4994473;28;20086;-92
2021/12/13 04:08:11;;;;;;;54.95;16.55;;;9.50;99.90;;;;;;4978457;28;20088;-91
2021/12/13 04:11:12;;;;;;;27.65;13.90;;;9.40;99.90;;;;;;4978331;28;20144;-93
2021/12/13 04:14:05;;;;;;;29.80;13.95;;;9.40;99.90;;;;;;4994493;28;20054;-92
2021/12/13 04:17:02;;;;;;;35.28;14.32;;;9.40;99.90;;;;;;4962023;28;20054;-91
2021/12/13 04:19:48;;;;;;;28.02;13.60;;;9.40;99.90;;;;;;4961718;28;20128;-91
2021/12/13 04:22:21;;;;;;;38.03;14.65;;;9.30;99.90;;;;;;4961518;28;20046;-91
2021/12/13 04:25:10;;;;;;;34.22;13.88;;;9.30;99.90;;;;;;4975091;28;20046;-91
2021/12/13 04:28:03;;;;;;;31.33;13.32;;;9.30;99.90;;;;;;4977544;28;20058;-91
2021/12/13 04:30:46;;;;;;;34.28;14.00;;;9.30;99.90;;;;;;4966211;28;20062;-91
2021/12/13 04:33:40;;;;;;;28.58;12.90;;;9.20;99.90;;;;;;4997024;28;20526;-91
2021/12/13 04:36:46;;;;;;;29.95;13.43;;;9.20;99.90;;;;;;4996494;28;20054;-91
2021/12/13 04:39:33;;;;;;;32.25;13.60;;;9.40;99.90;;;;;;4996085;28;20042;-91
2021/12/13 04:42:12;;;;;;;29.35;12.93;;;9.40;99.90;;;;;;4996772;28;20065;-91
2021/12/13 04:45:16;;;;;;;25.23;11.55;;;9.20;99.90;;;;;;4979459;28;20463;-91
2021/12/13 04:48:12;;;;;;;34.30;12.50;;;9.20;99.90;;;;;;4996136;28;20515;-91
2021/12/13 04:51:16;;;;;;;39.35;13.10;;;9.20;99.90;;;;;;4978425;28;20054;-91
2021/12/13 04:53:58;;;;;;;27.45;11.50;;;9.20;99.90;;;;;;5003233;28;20045;-91
2021/12/13 04:56:38;;;;;;;28.48;11.48;;;9.20;99.90;;;;;;5016268;28;20041;-90
2021/12/13 04:59:21;;;;;;;22.37;10.30;;;9.20;99.90;;;;;;5030802;28;20053;-92
2021/12/13 05:01:59;;;;;;;23.58;9.85;;;9.20;99.90;;;;;;5036548;28;20132;-91
2021/12/13 05:04:37;;;;;;;20.27;9.82;;;9.20;99.90;;;;;;4993038;28;20063;-90
2021/12/13 05:11:03;;;;;;;21.58;9.57;;;9.20;99.90;;;;;;4951224;29;20437;-90
2021/12/13 05:13:48;;;;;;;34.67;10.82;;;9.20;99.90;;;;;;4937870;29;20051;-91
2021/12/13 05:16:37;;;;;;;28.98;11.27;;;9.20;99.90;;;;;;4937841;28;20277;-91
2021/12/13 05:19:27;;;;;;;24.48;10.25;;;9.20;99.90;;;;;;4915851;29;20064;-90
2021/12/13 05:22:11;;;;;;;26.92;11.88;;;9.10;99.90;;;;;;4881449;29;20506;-91
2021/12/13 05:24:52;;;;;;;25.27;12.73;;;9.20;99.90;;;;;;4880142;29;20490;-91
2021/12/13 05:27:47;;;;;;;34.38;13.93;;;9.20;99.90;;;;;;4869086;29;20435;-91
2021/12/13 05:31:08;;;;;;;34.08;14.13;;;9.10;99.90;;;;;;4896141;29;20049;-88
2021/12/13 05:33:45;;;;;;;40.30;15.95;;;9.20;99.90;;;;;;4896706;29;20092;-90
2021/12/13 05:36:29;;;;;;;29.90;16.25;;;9.20;99.90;;;;;;4892912;29;20517;-90
2021/12/13 05:39:18;;;;;;;28.73;15.85;;;9.20;99.90;;;;;;4896393;29;20056;-90
2021/12/13 05:42:02;;;;;;;38.58;16.67;;;9.20;99.90;;;;;;4862592;29;20061;-91
2021/12/13 05:44:52;;;;;;;33.80;16.15;;;9.20;99.90;;;;;;4877800;29;20083;-91
2021/12/13 05:47:56;;;;;;;45.55;18.83;;;9.10;99.90;;;;;;4862162;29;20053;-90
2021/12/13 05:50:46;;;;;;;35.47;18.27;;;9.20;99.90;;;;;;4859271;29;20068;-90
2021/12/13 05:53:36;;;;;;;48.85;19.10;;;9.10;99.90;;;;;;4855478;29;20069;-90
2021/12/13 05:56:18;;;;;;;42.80;20.08;;;9.20;99.90;;;;;;4895085;29;20079;-90
2021/12/13 05:58:52;;;;;;;38.58;20.58;;;9.20;99.90;;;;;;4928679;29;20060;-91
2021/12/13 06:01:40;;;;;;;44.30;20.48;;;9.20;99.90;;;;;;4911135;29;20115;-91
2021/12/13 06:04:49;;;;;;;44.78;20.63;;;9.20;99.90;;;;;;4953299;29;20446;-91
2021/12/13 06:07:24;;;;;;;53.33;21.30;;;9.10;99.90;;;;;;4955140;28;20058;-90
2021/12/13 06:10:18;;;;;;;50.85;21.65;;;9.10;99.90;;;;;;4975492;28;20133;-93
2021/12/13 06:17:03;;;;;;;44.78;22.35;;;9.20;99.90;;;;;;4992006;28;20124;-91
2021/12/13 06:20:00;;;;;;;52.15;24.67;;;9.20;99.90;;;;;;4975980;28;20061;-90
2021/12/13 06:22:41;;;;;;;52.35;25.58;;;9.10;99.90;;;;;;4993622;28;20197;-90
2021/12/13 06:25:24;;;;;;;57.58;26.02;;;9.10;99.90;;;;;;4972734;28;20059;-91
2021/12/13 06:27:59;;;;;;;57.30;26.90;;;9.10;99.90;;;;;;4972504;28;20059;-90
2021/12/13 06:30:38;;;;;;;55.58;27.42;;;9.10;99.90;;;;;;4972381;28;20058;-91
2021/12/13 06:33:17;;;;;;;67.25;29.45;;;9.10;99.90;;;;;;4976086;28;20431;-91
2021/12/13 06:35:49;;;;;;;57.97;28.17;;;9.10;99.90;;;;;;4980329;28;20520;-90
2021/12/13 06:38:55;;;;;;;69.75;30.27;;;9.10;99.90;;;;;;4970549;28;20085;-90
2021/12/13 06:41:32;;;;;;;62.75;29.17;;;9.60;99.90;;;;;;4984770;28;20051;-90
2021/12/13 06:44:25;;;;;;;67.60;30.20;;;9.10;99.90;;;;;;4975534;28;20042;-90
2021/12/13 06:47:07;;;;;;;62.58;30.15;;;9.20;99.90;;;;;;4975076;28;20093;-90
2021/12/13 06:49:48;;;;;;;81.72;32.85;;;9.10;99.90;;;;;;4972803;28;20047;-90
2021/12/13 06:52:33;;;;;;;60.85;30.65;;;9.10;99.90;;;;;;4975035;28;20081;-89
2021/12/13 06:55:11;;;;;;;68.80;32.22;;;9.10;99.90;;;;;;4990839;28;20054;-90
2021/12/13 06:58:00;;;;;;;74.90;33.15;;;9.20;99.90;;;;;;5035079;28;20053;-91
2021/12/13 07:00:40;;;;;;;65.07;32.10;;;9.10;99.90;;;;;;5034738;28;20517;-89
2021/12/13 07:03:34;;;;;;;;;;;;;;;;;;;;;
2021/12/13 07:06:17;;;;;;;62.40;31.20;;;9.10;99.90;;;;;;5033583;28;20053;-90
2021/12/13 07:08:49;;;;;;;67.60;32.20;;;9.10;99.90;;;;;;5034931;28;20398;-89
2021/12/13 07:12:02;;;;;;;74.18;33.38;;;9.10;99.90;;;;;;5014474;28;20053;-89
2021/12/13 07:14:44;;;;;;;62.30;31.85;;;9.10;99.90;;;;;;4975978;28;20546;-89
2021/12/13 07:21:32;;;;;;;77.78;34.72;;;9.20;99.90;;;;;;5014295;28;20100;-90
2021/12/13 07:24:24;;;;;;;72.45;33.72;;;9.10;99.90;;;;;;4981273;28;20077;-92
2021/12/13 07:27:06;;;;;;;170.00;41.78;;;9.10;99.90;;;;;;4981167;28;20447;-89
2021/12/13 07:29:54;;;;;;;86.25;34.47;;;9.10;99.90;;;;;;4981362;28;20062;-89
2021/12/13 07:32:31;;;;;;;85.32;35.47;;;9.10;99.90;;;;;;4997767;28;20455;-91
2021/12/13 07:35:16;;;;;;;69.43;33.65;;;9.10;99.90;;;;;;4981582;28;20088;-90
2021/12/13 07:37:56;;;;;;;67.30;34.22;;;9.10;99.90;;;;;;4995128;28;20069;-91
2021/12/13 07:40:53;;;;;;;60.65;31.40;;;9.10;99.90;;;;;;4997503;28;20054;-90
2021/12/13 07:43:43;;;;;;;70.07;34.03;;;9.10;99.90;;;;;;5006171;28;20407;-89
2021/12/13 07:46:25;;;;;;;61.50;33.22;;;9.10;99.90;;;;;;5020973;28;20487;-90
2021/12/13 07:49:04;;;;;;;73.30;34.20;;;9.10;99.90;;;;;;5036817;28;20056;-90
2021/12/13 07:51:56;;;;;;;69.75;33.85;;;9.10;99.90;;;;;;5036717;28;20067;-90
2021/12/13 07:54:28;;;;;;;65.38;32.00;;;9.10;99.90;;;;;;5024792;28;20096;-90
2021/12/13 07:57:23;;;;;;;83.57;33.35;;;9.00;99.90;;;;;;5001530;28;20088;-89
2021/12/13 08:07:42;;;;;;;59.38;29.77;;;9.00;99.90;;;;;;5035200;28;20043;-88
2021/12/13 08:10:38;;;;;;;61.92;30.45;;;9.10;99.90;;;;;;5000520;28;20061;-90
2021/12/13 08:13:17;;;;;;;54.05;29.85;;;9.10;99.90;;;;;;5017617;28;20447;-89
2021/12/13 08:16:03;;;;;;;62.97;31.95;;;9.00;99.90;;;;;;5016824;28;20503;-89
2021/12/13 08:19:04;;;;;;;65.72;31.80;;;9.00;99.90;;;;;;5017106;28;20046;-90
2021/12/13 08:21:58;;;;;;;62.00;29.48;;;9.10;99.90;;;;;;5016894;28;20392;-90
2021/12/13 08:24:38;;;;;;;67.88;31.73;;;9.10;99.90;;;;;;5016845;28;20053;-90
2021/12/13 08:27:44;;;;;;;61.90;30.67;;;9.10;99.90;;;;;;5016724;28;20082;-91
2021/12/13 08:30:50;;;;;;;60.33;30.98;;;9.10;99.90;;;;;;5017207;28;20045;-90
2021/12/13 08:33:37;;;;;;;58.15;30.80;;;9.00;99.90;;;;;;5016832;28;20049;-92
2021/12/13 08:36:23;;;;;;;62.00;29.58;;;9.00;99.90;;;;;;4999506;28;20049;-90
2021/12/13 08:39:16;;;;;;;50.22;29.58;;;9.10;99.90;;;;;;5012683;28;20072;-89
2021/12/13 08:42:09;;;;;;;61.05;30.83;;;9.40;99.90;;;;;;4995681;28;20053;-90
2021/12/13 08:44:43;;;;;;;61.78;29.67;;;9.10;99.90;;;;;;4979694;28;20073;-90
2021/12/13 08:47:32;;;;;;;59.92;29.25;;;9.10;99.90;;;;;;4995356;28;20133;-89
2021/12/13 08:50:29;;;;;;;75.85;32.45;;;9.10;99.90;;;;;;4996078;28;20407;-89
2021/12/13 08:53:10;;;;;;;55.58;29.33;;;9.10;99.90;;;;;;4938338;29;20058;-89
2021/12/13 08:56:10;;;;;;;60.90;29.30;;;9.10;99.90;;;;;;4956839;28;20138;-89
2021/12/13 08:58:59;;;;;;;51.63;27.15;;;9.10;99.90;;;;;;4956840;28;20145;-90
2021/12/13 09:01:54;;;;;;;56.83;27.30;;;9.10;99.90;;;;;;4962257;28;20456;-89
2021/12/13 09:04:32;;;;;;;51.53;27.73;;;9.10;99.90;;;;;;4953869;29;20090;-89
2021/12/13 09:07:15;;;;;;;48.55;25.60;;;9.20;99.90;;;;;;4954012;28;20055;-88
2021/12/13 09:09:48;;;;;;;53.90;25.80;;;9.20;99.90;;;;;;4945169;28;20137;-93
2021/12/13 09:12:37;;;;;;;50.25;26.92;;;9.20;99.90;;;;;;4973069;28;20128;-89
2021/12/13 09:15:34;;;;;;;45.92;25.17;;;9.20;99.90;;;;;;4973047;28;20120;-89
2021/12/13 09:18:07;;;;;;;40.35;23.88;;;9.20;99.90;;;;;;4972964;28;20055;-91
2021/12/13 09:20:54;;;;;;;42.60;24.60;;;9.20;99.90;;;;;;4956744;28;20069;-89
2021/12/13 09:23:51;;;;;;;51.55;26.17;;;9.30;99.90;;;;;;4982456;28;20054;-89
2021/12/13 09:26:25;;;;;;;43.30;23.92;;;9.30;99.90;;;;;;4979296;28;20053;-89
2021/12/13 09:33:15;;;;;;;55.45;25.02;;;9.30;99.90;;;;;;5011825;28;20045;-89
2021/12/13 09:36:22;;;;;;;47.13;24.50;;;9.30;99.90;;;;;;4994200;28;20061;-89
2021/12/13 09:39:31;;;;;;;41.45;23.10;;;9.30;99.90;;;;;;4991995;28;20449;-88
2021/12/13 09:42:13;;;;;;;46.17;24.45;;;9.30;99.90;;;;;;4975269;28;20046;-88
2021/12/13 09:45:07;;;;;;;37.92;21.88;;;9.30;99.90;;;;;;5008174;28;20058;-89
2021/12/13 09:48:08;;;;;;;47.63;24.23;;;9.40;99.90;;;;;;5008582;28;20104;-89
2021/12/13 09:50:46;;;;;;;35.78;21.55;;;9.40;99.90;;;;;;4975056;28;20054;-89
2021/12/13 09:53:37;;;;;;;37.13;22.23;;;9.40;99.90;;;;;;4958380;28;20055;-89
2021/12/13 09:56:13;;;;;;;35.35;21.75;;;9.50;99.90;;;;;;4975603;28;20062;-89
2021/12/13 09:59:05;;;;;;;38.50;21.30;;;9.50;99.90;;;;;;4992073;28;20397;-89
2021/12/13 10:01:44;;;;;;;38.40;22.60;;;9.50;99.90;;;;;;4986280;28;20055;-91
2021/12/13 10:04:49;;;;;;;36.60;21.55;;;9.50;99.90;;;;;;4975721;28;20517;-92
2021/12/13 10:07:33;;;;;;;38.13;20.55;;;9.50;99.90;;;;;;4976105;28;20054;-91
2021/12/13 10:10:23;;;;;;;38.92;21.48;;;9.50;99.90;;;;;;4959469;28;20066;-91
2021/12/13 10:12:55;;;;;;;36.47;20.30;;;9.60;99.90;;;;;;4992420;28;20062;-91
2021/12/13 10:16:02;;;;;;;39.00;20.45;;;9.60;99.90;;;;;;4953624;29;20051;-91
2021/12/13 10:18:40;;;;;;;42.80;20.45;;;9.60;99.90;;;;;;4956194;28;20119;-91
2021/12/13 10:21:30;;;;;;;35.20;19.85;;;9.50;99.90;;;;;;4958477;28;20062;-92
2021/12/13 10:24:26;;;;;;;32.88;19.05;;;9.50;99.90;;;;;;4957197;28;20055;-91
2021/12/13 10:27:13;;;;;;;30.67;19.38;;;9.50;99.90;;;;;;4956372;28;20054;-92
2021/12/13 10:29:58;;;;;;;32.80;20.00;;;9.50;99.90;;;;;;4957109;28;20055;-93
2021/12/13 10:32:38;;;;;;;33.20;18.38;;;9.50;99.90;;;;;;4957020;28;20109;-92
2021/12/13 10:35:23;;;;;;;37.45;19.98;;;9.60;99.90;;;;;;4947414;29;20048;-91
2021/12/13 10:37:57;;;;;;;34.95;18.83;;;9.60;99.90;;;;;;4921700;28;20059;-91
2021/12/13 10:40:36;;;;;;;31.48;18.02;;;9.60;99.90;;;;;;4953305;29;20097;-90
2021/12/13 10:43:17;;;;;;;37.15;20.15;;;9.60;99.90;;;;;;4937250;29;20059;-91
2021/12/13 10:45:57;;;;;;;30.90;18.95;;;9.50;99.90;;;;;;4921262;29;20150;-92
2021/12/13 10:48:42;;;;;;;31.27;18.52;;;9.60;99.90;;;;;;4937665;29;20070;-92
2021/12/13 10:55:14;;;;;;;31.60;18.27;;;9.60;99.90;;;;;;4941769;28;20090;-90
2021/12/13 10:58:10;;;;;;;;;;;;;;;;;;;;;
2021/12/13 11:01:01;;;;;;;30.42;18.38;;;9.70;99.90;;;;;;4940092;29;20118;-89
2021/12/13 11:03:39;;;;;;;36.45;18.50;;;9.70;99.90;;;;;;4972199;28;20055;-89
2021/12/13 11:06:21;;;;;;;29.15;17.08;;;9.70;99.90;;;;;;4938100;29;20055;-88
2021/12/13 11:08:58;;;;;;;35.45;18.95;;;9.70;99.90;;;;;;4972398;28;20054;-89
2021/12/13 11:11:41;;;;;;;29.15;16.88;;;9.70;99.90;;;;;;4972362;28;20488;-91
2021/12/13 11:14:27;;;;;;;33.45;18.02;;;9.80;99.90;;;;;;4956083;28;20425;-90
2021/12/13 11:17:05;;;;;;;29.98;18.38;;;9.80;99.90;;;;;;4956530;28;20058;-90
2021/12/13 11:19:49;;;;;;;29.35;18.85;;;9.70;99.90;;;;;;4939631;29;20097;-90
2021/12/13 11:22:32;;;;;;;27.90;17.52;;;9.80;99.90;;;;;;4958187;28;20086;-91
2021/12/13 11:25:40;;;;;;;;;;;;;;;;;;;;;
2021/12/13 11:28:13;;;;;;;32.10;17.52;;;9.80;99.90;;;;;;5000406;28;20053;-90
2021/12/13 11:30:53;;;;;;;31.17;18.33;;;9.70;99.90;;;;;;5029967;28;20057;-88
2021/12/13 11:33:42;;;;;;;32.55;17.25;;;9.70;99.90;;;;;;5016623;28;20050;-89
2021/12/13 11:36:50;;;;;;;28.80;17.73;;;9.70;99.90;;;;;;5014035;28;20412;-90
2021/12/13 11:39:44;;;;;;;30.90;18.52;;;9.70;99.90;;;;;;5013927;28;20085;-89
2021/12/13 11:42:47;;;;;;;32.47;17.55;;;9.80;99.90;;;;;;4972786;28;20514;-90
2021/12/13 11:46:13;;;;;;;28.70;18.05;;;9.80;99.90;;;;;;4996926;28;20105;-90
2021/12/13 11:49:03;;;;;;;31.77;17.50;;;9.80;99.90;;;;;;4974402;28;20129;-90
2021/12/13 11:52:04;;;;;;;32.03;18.23;;;9.80;99.90;;;;;;4971735;28;20109;-88
2021/12/13 11:58:43;;;;;;;28.08;17.55;;;9.80;99.90;;;;;;4976172;28;20137;-90
2021/12/13 12:01:47;;;;;;;30.08;17.08;;;9.80;99.90;;;;;;4993717;28;20058;-88
2021/12/13 12:05:04;;;;;;;28.13;16.50;;;9.80;99.90;;;;;;4982644;28;20089;-89
2021/12/13 12:07:48;;;;;;;34.05;17.77;;;9.80;99.90;;;;;;4998321;28;20489;-88
2021/12/13 12:11:00;;;;;;;33.47;17.80;;;9.80;99.90;;;;;;4970623;28;20090;-89
2021/12/13 12:14:10;;;;;;;31.40;17.50;;;9.80;99.90;;;;;;4970773;28;20138;-88
2021/12/13 12:16:48;;;;;;;29.48;17.15;;;9.80;99.90;;;;;;4916393;29;20445;-88
2021/12/13 12:19:36;;;;;;;31.92;17.77;;;9.90;99.90;;;;;;4904037;29;20052;-89
2021/12/13 12:22:30;;;;;;;24.27;15.73;;;10.10;99.90;;;;;;4919268;29;20112;-89
2021/12/13 12:25:12;;;;;;;30.52;16.63;;;9.90;99.90;;;;;;4914253;29;20092;-89
2021/12/13 12:27:53;;;;;;;29.23;17.45;;;9.90;99.90;;;;;;4919248;29;20087;-90
2021/12/13 12:30:42;;;;;;;;;;;;;;;;;;;;;
2021/12/13 12:33:23;;;;;;;31.33;17.63;;;10.00;99.90;;;;;;4918754;29;20510;-89
2021/12/13 12:40:16;;;;;;;30.20;16.75;;;10.00;99.90;;;;;;4957911;28;20449;-90
2021/12/13 12:42:51;;;;;;;25.58;15.48;;;10.00;99.90;;;;;;5016213;28;20556;-89
2021/12/13 12:45:49;;;;;;;32.47;16.98;;;10.10;99.90;;;;;;5015810;28;20053;-89
2021/12/13 12:48:43;;;;;;;28.33;16.33;;;10.00;99.90;;;;;;5031226;28;20499;-90
2021/12/13 12:51:30;;;;;;;24.73;16.23;;;10.10;99.90;;;;;;5020179;28;20510;-90
2021/12/13 12:54:28;;;;;;;25.05;14.95;;;10.10;99.90;;;;;;5036628;28;20064;-89
2021/12/13 12:59:52;;;;;;;24.02;15.65;;;10.10;99.90;;;;;;4990586;28;20050;-90
2021/12/13 13:02:22;;;;;;;28.98;16.65;;;10.10;99.90;;;;;;4974304;28;20062;-90
2021/12/13 13:05:03;;;;;;;26.90;17.10;;;10.10;99.90;;;;;;4975800;28;20479;-90
2021/12/13 13:07:44;;;;;;;31.08;17.20;;;10.10;99.90;;;;;;4976275;28;20054;-90
2021/12/13 13:13:18;;;;;;;29.48;17.52;;;10.20;99.90;;;;;;4992853;28;20401;-90
2021/12/13 13:15:52;;;;;;;26.70;16.48;;;10.20;99.90;;;;;;4976494;28;20109;-90
2021/12/13 13:22:32;;;;;;;32.92;21.27;;;10.20;99.90;;;;;;4953995;29;20086;-91
2021/12/13 13:25:23;;;;;;;33.83;21.88;;;10.20;99.90;;;;;;4948267;28;20399;-91
2021/12/13 13:28:02;;;;;;;;;;;;;;;;;;;;;
2021/12/13 13:30:56;;;;;;;27.77;16.38;;;10.20;99.90;;;;;;4902388;29;20053;-92
2021/12/13 13:33:48;;;;;;;26.80;15.57;;;10.10;99.90;;;;;;4878482;29;20068;-92
2021/12/13 13:36:42;;;;;;;25.90;15.60;;;10.10;99.90;;;;;;4863268;29;20820;-90
2021/12/13 13:39:39;;;;;;;25.17;15.02;;;10.10;99.90;;;;;;4861790;29;20061;-90
2021/12/13 13:42:33;;;;;;;23.27;14.20;;;10.10;99.90;;;;;;4878016;29;20099;-90
2021/12/13 13:45:22;;;;;;;28.17;14.15;;;10.10;99.90;;;;;;4893328;29;20435;-91
2021/12/13 13:48:31;;;;;;;22.55;13.75;;;10.10;99.90;;;;;;4909036;29;20060;-90
2021/12/13 13:51:13;;;;;;;19.63;13.35;;;10.10;99.90;;;;;;4899054;29;20056;-90
2021/12/13 13:53:59;;;;;;;22.23;13.55;;;10.10;99.90;;;;;;4899578;29;20056;-90
2021/12/13 13:56:41;;;;;;;21.60;13.48;;;10.10;99.90;;;;;;4899173;29;20056;-90
2021/12/13 13:59:15;;;;;;;21.85;12.43;;;10.10;99.90;;;;;;4914251;29;20056;-91
2021/12/13 14:05:36;;;;;;;22.60;12.63;;;10.00;99.90;;;;;;4915290;29;20095;-91
2021/12/13 14:08:34;;;;;;;23.80;12.45;;;10.00;99.90;;;;;;4900015;29;20067;-91
2021/12/13 14:11:20;;;;;;;22.13;13.07;;;10.00;99.90;;;;;;4937538;29;20101;-91
2021/12/13 14:13:53;;;;;;;23.63;13.10;;;9.90;99.90;;;;;;4915484;29;20056;-91
2021/12/13 14:16:28;;;;;;;21.42;12.55;;;9.90;99.90;;;;;;4915449;29;20083;-91
2021/12/13 14:19:30;;;;;;;22.15;12.38;;;9.90;99.90;;;;;;4899843;29;20068;-90
2021/12/13 14:21:59;;;;;;;21.52;12.05;;;9.80;99.90;;;;;;4903396;29;20063;-91
2021/12/13 14:24:56;;;;;;;21.45;13.05;;;9.80;99.90;;;;;;4903114;29;20044;-90
2021/12/13 14:27:34;;;;;;;22.13;12.80;;;9.80;99.90;;;;;;4923365;29;20066;-91
2021/12/13 14:30:26;;;;;;;20.92;12.98;;;9.70;99.90;;;;;;4940913;29;20062;-91
2021/12/13 14:33:00;;;;;;;19.20;12.50;;;9.70;99.90;;;;;;4960355;28;20058;-90
2021/12/13 14:35:37;;;;;;;23.23;13.23;;;9.70;99.90;;;;;;4960844;28;20051;-91
2021/12/13 14:38:16;;;;;;;22.08;13.02;;;9.60;99.90;;;;;;4960200;28;20050;-91
2021/12/13 14:41:07;;;;;;;24.25;13.35;;;9.70;99.90;;;;;;4959865;28;20055;-91
2021/12/13 14:47:27;;;;;;;19.40;12.63;;;9.60;99.90;;;;;;5015141;28;20033;-91
2021/12/13 14:50:01;;;;;;;20.60;13.23;;;9.60;99.90;;;;;;4998556;28;20132;-91
2021/12/13 14:52:44;;;;;;;20.55;12.60;;;9.50;99.90;;;;;;4993533;28;20149;-90
2021/12/13 14:55:27;;;;;;;22.42;13.02;;;9.50;99.90;;;;;;4998248;28;20050;-90
2021/12/13 14:58:06;;;;;;;21.52;12.38;;;9.50;99.90;;;;;;4995239;28;20069;-91
2021/12/13 15:00:50;;;;;;;19.33;12.05;;;9.50;99.90;;;;;;4937436;29;20060;-91
2021/12/13 15:03:30;;;;;;;19.25;12.15;;;9.40;99.90;;;;;;4920889;29;20051;-90
2021/12/13 15:06:48;;;;;;;21.45;13.35;;;9.40;99.90;;;;;;4921454;29;20059;-91
2021/12/13 15:09:25;;;;;;;22.13;12.82;;;9.40;99.90;;;;;;4937573;29;20052;-90
2021/12/13 15:12:04;;;;;;;18.15;12.15;;;9.40;99.90;;;;;;4902704;29;20060;-91
2021/12/13 15:14:44;;;;;;;22.35;12.75;;;9.40;99.90;;;;;;4880863;29;20143;-91
2021/12/13 15:17:32;;;;;;;21.10;11.80;;;9.40;99.90;;;;;;4846968;29;20149;-89
2021/12/13 15:20:28;;;;;;;19.60;12.35;;;9.30;99.90;;;;;;4846533;29;20061;-91
2021/12/13 15:23:10;;;;;;;19.83;12.10;;;9.30;99.90;;;;;;4846379;29;20134;-91
2021/12/13 15:25:54;;;;;;;21.23;12.43;;;9.30;99.90;;;;;;4827757;29;20062;-91
2021/12/13 15:28:33;;;;;;;22.98;12.77;;;9.30;99.90;;;;;;4837301;29;20512;-90
2021/12/13 15:31:21;;;;;;;19.98;12.05;;;9.30;99.90;;;;;;4860324;29;20057;-91
2021/12/13 15:33:55;;;;;;;19.00;12.85;;;9.30;99.90;;;;;;4843684;29;20100;-90
2021/12/13 15:36:25;;;;;;;21.98;12.93;;;9.30;99.90;;;;;;4842591;29;20062;-91
2021/12/13 15:39:17;;;;;;;20.02;12.25;;;9.20;99.90;;;;;;4843499;29;20058;-91
2021/12/13 15:41:52;;;;;;;22.08;12.43;;;9.20;99.90;;;;;;4828212;29;20054;-91
2021/12/13 15:44:37;;;;;;;21.00;12.82;;;9.20;99.90;;;;;;4839260;29;20455;-91
2021/12/13 15:47:14;;;;;;;19.50;13.18;;;9.20;99.90;;;;;;4898618;29;20093;-92
2021/12/13 15:53:13;;;;;;;23.25;12.75;;;9.20;99.90;;;;;;4939325;28;20090;-90
2021/12/13 15:56:07;;;;;;;21.05;13.15;;;9.20;99.90;;;;;;4934069;28;20138;-90
2021/12/13 15:58:54;;;;;;;17.75;12.45;;;9.20;99.90;;;;;;4995269;28;20057;-91